createdAt,value
2022-09-15T00:01:39.078Z,29.40
2022-09-15T00:04:30.136Z,29.40
2022-09-15T00:07:23.317Z,29.38
2022-09-15T00:10:13.860Z,29.53
2022-09-15T00:13:04.334Z,29.60
2022-09-15T00:15:56.481Z,29.65
2022-09-15T00:18:47.668Z,29.78
2022-09-15T00:21:41.500Z,29.84
2022-09-15T00:24:32.052Z,29.86
2022-09-15T00:27:22.410Z,29.96
2022-09-15T00:30:15.769Z,30.08
2022-09-15T00:33:08.795Z,30.17
2022-09-15T00:36:02.780Z,30.25
2022-09-15T00:38:54.496Z,30.31
2022-09-15T00:41:45.513Z,30.33
2022-09-15T00:44:39.809Z,30.39
2022-09-15T00:47:37.808Z,30.44
2022-09-15T00:50:28.619Z,30.41
2022-09-15T00:53:21.064Z,30.49
2022-09-15T00:56:13.850Z,30.57
2022-09-15T00:59:08.664Z,30.66
2022-09-15T01:02:18.923Z,30.78
2022-09-15T01:05:15.363Z,30.83
2022-09-15T01:08:13.338Z,30.91
2022-09-15T01:11:04.250Z,30.98
2022-09-15T01:13:55.857Z,31.06
2022-09-15T01:17:01.970Z,31.14
2022-09-15T01:20:16.209Z,31.22
2022-09-15T01:23:43.477Z,31.28
2022-09-15T01:27:06.569Z,31.27
2022-09-15T01:30:10.960Z,31.32
2022-09-15T01:33:48.814Z,31.45
2022-09-15T01:36:48.211Z,31.33
2022-09-15T01:39:42.401Z,31.30
2022-09-15T01:42:34.133Z,31.26
2022-09-15T01:45:33.500Z,31.34
2022-09-15T01:48:28.976Z,31.40
2022-09-15T01:51:19.190Z,31.49
2022-09-15T01:54:10.656Z,31.56
2022-09-15T01:57:01.447Z,31.56
2022-09-15T01:59:52.427Z,31.54
2022-09-15T02:03:00.463Z,31.65
2022-09-15T02:06:06.974Z,31.71
2022-09-15T02:09:09.394Z,31.67
2022-09-15T02:12:22.136Z,31.53
2022-09-15T02:15:17.868Z,31.60
2022-09-15T02:18:10.763Z,31.63
2022-09-15T02:21:09.600Z,31.71
2022-09-15T02:24:06.711Z,31.78
2022-09-15T02:26:58.957Z,31.76
2022-09-15T02:29:49.779Z,31.86
2022-09-15T02:32:44.366Z,31.95
2022-09-15T02:35:39.298Z,32.01
2022-09-15T02:38:37.884Z,32.09
2022-09-15T02:41:31.927Z,32.19
2022-09-15T02:44:22.363Z,32.20
2022-09-15T02:47:13.728Z,32.16
2022-09-15T02:50:05.128Z,32.18
2022-09-15T02:52:58.662Z,32.20
2022-09-15T02:55:51.098Z,32.28
2022-09-15T02:58:42.393Z,32.29
2022-09-15T03:01:37.518Z,32.37
2022-09-15T03:04:27.902Z,32.43
2022-09-15T03:07:24.702Z,32.46
2022-09-15T03:10:16.113Z,32.54
2022-09-15T03:13:07.876Z,32.62
2022-09-15T03:15:58.106Z,32.69
2022-09-15T03:18:48.319Z,32.70
2022-09-15T03:21:40.333Z,32.72
2022-09-15T03:24:30.856Z,32.83
2022-09-15T03:27:20.747Z,32.84
2022-09-15T03:30:12.612Z,32.91
2022-09-15T03:33:03.120Z,32.93
2022-09-15T03:35:54.944Z,32.93
2022-09-15T03:38:47.127Z,32.91
2022-09-15T03:41:41.849Z,32.87
2022-09-15T03:44:33.322Z,32.84
2022-09-15T03:47:27.009Z,32.82
2022-09-15T03:50:21.008Z,32.77
2022-09-15T03:53:15.285Z,32.53
2022-09-15T03:56:10.315Z,32.55
2022-09-15T03:59:03.233Z,32.57
2022-09-15T04:01:54.381Z,32.53
2022-09-15T04:04:44.241Z,32.61
2022-09-15T04:07:36.952Z,32.59
2022-09-15T04:10:27.581Z,32.74
2022-09-15T04:13:19.467Z,32.75
2022-09-15T04:16:14.843Z,32.75
2022-09-15T04:19:06.133Z,32.70
2022-09-15T04:21:57.547Z,32.73
2022-09-15T04:24:58.227Z,32.64
2022-09-15T04:28:11.855Z,32.64
2022-09-15T04:31:13.143Z,32.68
2022-09-15T04:34:04.339Z,32.78
2022-09-15T04:36:54.511Z,32.78
2022-09-15T04:39:47.648Z,32.96
2022-09-15T04:42:38.606Z,33.08
2022-09-15T04:45:29.009Z,33.10
2022-09-15T04:48:19.387Z,33.13
2022-09-15T04:51:26.394Z,33.18
2022-09-15T04:54:17.366Z,33.30
2022-09-15T04:57:11.214Z,33.35
2022-09-15T05:00:05.185Z,33.37
2022-09-15T05:02:56.214Z,33.44
2022-09-15T05:05:51.402Z,33.49
2022-09-15T05:08:42.242Z,33.60
2022-09-15T05:11:34.272Z,33.67
2022-09-15T05:14:24.646Z,33.69
2022-09-15T05:17:15.432Z,33.65
2022-09-15T05:20:07.091Z,33.62
2022-09-15T05:22:56.894Z,33.66
2022-09-15T05:26:06.529Z,33.78
2022-09-15T05:28:59.516Z,33.79
2022-09-15T05:31:50.078Z,33.84
2022-09-15T05:34:42.683Z,33.83
2022-09-15T05:37:33.313Z,33.81
2022-09-15T05:40:25.181Z,33.84
2022-09-15T05:43:15.961Z,33.86
2022-09-15T05:46:12.312Z,33.75
2022-09-15T05:49:02.897Z,33.77
2022-09-15T05:51:53.878Z,33.81
2022-09-15T05:54:44.818Z,33.88
2022-09-15T05:57:36.137Z,33.90
2022-09-15T06:00:26.592Z,33.79
2022-09-15T06:03:18.737Z,33.78
2022-09-15T06:06:09.975Z,33.80
2022-09-15T06:09:01.962Z,33.67
2022-09-15T06:11:53.724Z,33.59
2022-09-15T06:14:45.977Z,33.53
2022-09-15T06:17:40.715Z,33.47
2022-09-15T06:20:32.158Z,33.36
2022-09-15T06:23:23.251Z,33.36
2022-09-15T06:26:20.869Z,33.44
2022-09-15T06:29:17.785Z,33.59
2022-09-15T06:32:09.227Z,33.66
2022-09-15T06:34:59.549Z,33.68
2022-09-15T06:37:52.511Z,33.75
2022-09-15T06:40:43.591Z,33.76
2022-09-15T06:43:39.377Z,33.76
2022-09-15T06:46:30.387Z,33.71
2022-09-15T06:49:27.353Z,33.76
2022-09-15T06:52:18.962Z,33.66
2022-09-15T06:55:10.177Z,33.68
2022-09-15T06:58:00.394Z,33.66
2022-09-15T07:00:51.624Z,33.60
2022-09-15T07:03:45.440Z,33.58
2022-09-15T07:06:36.916Z,33.54
2022-09-15T07:09:28.315Z,33.50
2022-09-15T07:12:18.887Z,33.47
2022-09-15T07:15:11.007Z,33.48
2022-09-15T07:18:02.106Z,33.45
2022-09-15T07:20:53.210Z,33.40
2022-09-15T07:23:43.965Z,33.38
2022-09-15T07:26:36.845Z,33.44
2022-09-15T07:29:28.780Z,33.47
2022-09-15T07:32:19.356Z,33.52
2022-09-15T07:35:10.180Z,33.55
2022-09-15T07:38:01.981Z,33.54
2022-09-15T07:40:53.793Z,33.49
2022-09-15T07:43:49.027Z,33.44
2022-09-15T07:46:40.997Z,33.40
2022-09-15T07:49:32.566Z,33.36
2022-09-15T07:52:23.296Z,33.33
2022-09-15T07:55:13.878Z,33.26
2022-09-15T07:58:05.786Z,33.18
2022-09-15T08:00:56.643Z,33.20
2022-09-15T08:03:50.466Z,33.11
2022-09-15T08:06:40.591Z,33.03
2022-09-15T08:09:31.151Z,32.93
2022-09-15T08:12:21.994Z,32.89
2022-09-15T08:15:12.227Z,32.81
2022-09-15T08:18:02.533Z,32.76
2022-09-15T08:20:56.264Z,32.70
2022-09-15T08:23:48.834Z,32.62
2022-09-15T08:26:41.069Z,32.55
2022-09-15T08:29:31.375Z,32.54
2022-09-15T08:32:22.517Z,32.47
2022-09-15T08:35:13.782Z,32.40
2022-09-15T08:38:04.233Z,32.35
2022-09-15T08:41:00.300Z,32.22
2022-09-15T08:44:27.178Z,32.19
2022-09-15T08:47:24.073Z,32.16
2022-09-15T08:50:32.850Z,32.09
2022-09-15T08:53:32.512Z,31.96
2022-09-15T08:56:23.718Z,31.90
2022-09-15T08:59:18.050Z,31.78
2022-09-15T09:02:32.067Z,31.75
2022-09-15T09:05:30.948Z,31.70
2022-09-15T09:08:49.516Z,31.74
2022-09-15T09:12:01.777Z,31.67
2022-09-15T09:15:13.829Z,31.59
2022-09-15T09:18:29.944Z,31.58
2022-09-15T09:21:34.107Z,31.48
2022-09-15T09:24:37.003Z,31.43
2022-09-15T09:30:38.645Z,31.34
2022-09-15T09:33:45.102Z,31.38
2022-09-15T09:36:38.250Z,31.29
2022-09-15T09:39:32.028Z,31.31
2022-09-15T09:42:23.464Z,31.29
2022-09-15T09:45:17.731Z,31.32
2022-09-15T09:48:22.255Z,31.30
2022-09-15T09:51:55.983Z,31.33
2022-09-15T09:54:47.131Z,31.23
2022-09-15T09:57:40.787Z,31.17
2022-09-15T10:00:44.546Z,31.18
2022-09-15T10:03:36.163Z,31.11
2022-09-15T10:06:30.191Z,31.12
2022-09-15T10:09:24.087Z,31.10
2022-09-15T10:12:24.933Z,31.13
2022-09-15T10:15:27.668Z,31.11
2022-09-15T10:18:38.962Z,31.12
2022-09-15T10:21:30.078Z,31.06
2022-09-15T10:24:46.904Z,31.10
2022-09-15T10:27:40.345Z,31.07
2022-09-15T10:30:30.776Z,31.01
2022-09-15T10:33:38.654Z,31.04
2022-09-15T10:36:35.070Z,31.05
2022-09-15T10:39:48.586Z,31.01
2022-09-15T10:43:21.621Z,31.07
2022-09-15T10:46:40.851Z,30.99
2022-09-15T10:50:07.673Z,31.01
2022-09-15T10:53:27.760Z,30.97
2022-09-15T10:56:30.358Z,30.94
2022-09-15T10:59:27.485Z,30.94
2022-09-15T11:02:39.078Z,30.98
2022-09-15T11:06:09.082Z,30.96
2022-09-15T11:09:30.342Z,30.92
2022-09-15T11:12:43.070Z,30.90
2022-09-15T11:15:47.557Z,30.89
2022-09-15T11:18:40.623Z,30.79
2022-09-15T11:21:49.074Z,30.86
2022-09-15T11:24:43.802Z,30.90
2022-09-15T11:27:51.523Z,30.87
2022-09-15T11:30:58.554Z,30.86
2022-09-15T11:34:10.383Z,30.83
2022-09-15T11:37:06.580Z,30.85
2022-09-15T11:40:11.822Z,30.84
2022-09-15T11:43:33.532Z,30.74
2022-09-15T11:46:53.303Z,30.67
2022-09-15T11:50:03.635Z,30.61
2022-09-15T11:53:14.267Z,30.66
2022-09-15T11:56:25.823Z,30.55
2022-09-15T11:59:29.172Z,30.56
2022-09-15T12:02:29.115Z,30.76
2022-09-15T12:05:23.185Z,30.87
2022-09-15T12:08:21.392Z,30.96
2022-09-15T12:11:23.498Z,30.98
2022-09-15T12:14:39.135Z,30.98
2022-09-15T12:18:01.327Z,31.10
2022-09-15T12:21:21.402Z,31.10
2022-09-15T12:24:15.320Z,31.12
2022-09-15T12:27:07.703Z,31.12
2022-09-15T12:30:02.086Z,31.08
2022-09-15T12:32:55.676Z,31.08
2022-09-15T12:35:46.403Z,31.15
2022-09-15T12:38:38.174Z,31.12
2022-09-15T12:41:30.620Z,31.03
2022-09-15T12:44:37.642Z,31.04
2022-09-15T12:47:36.606Z,31.03
2022-09-15T12:50:39.887Z,31.03
2022-09-15T12:54:06.168Z,31.02
2022-09-15T12:56:59.796Z,31.01
2022-09-15T12:59:52.236Z,31.04
2022-09-15T13:02:56.773Z,31.08
2022-09-15T13:05:49.810Z,31.04
2022-09-15T13:08:51.535Z,31.06
2022-09-15T13:14:59.676Z,31.02
2022-09-15T13:17:51.891Z,31.04
2022-09-15T13:20:57.339Z,31.04
2022-09-15T13:23:53.904Z,31.05
2022-09-15T13:26:46.948Z,31.02
2022-09-15T13:29:56.236Z,31.05
2022-09-15T13:32:54.312Z,31.06
2022-09-15T13:36:03.634Z,31.08
2022-09-15T13:39:11.080Z,31.13
2022-09-15T13:42:34.499Z,31.11
2022-09-15T13:49:21.057Z,31.08
2022-09-15T13:52:23.256Z,31.07
2022-09-15T13:55:32.016Z,31.11
2022-09-15T14:01:44.327Z,31.03
2022-09-15T14:04:36.009Z,31.02
2022-09-15T14:07:27.486Z,31.02
2022-09-15T14:10:31.303Z,30.99
2022-09-15T14:13:24.559Z,30.97
2022-09-15T14:16:37.296Z,31.02
2022-09-15T14:19:44.215Z,31.01
2022-09-15T14:22:46.442Z,30.97
2022-09-15T14:25:45.080Z,30.96
2022-09-15T14:28:35.186Z,30.96
2022-09-15T14:31:41.702Z,30.96
2022-09-15T14:34:34.916Z,30.95
2022-09-15T14:37:34.867Z,30.94
2022-09-15T14:40:36.257Z,30.94
2022-09-15T14:43:35.276Z,30.94
2022-09-15T14:46:32.454Z,30.93
2022-09-15T14:49:24.231Z,30.92
2022-09-15T14:52:35.696Z,30.96
2022-09-15T14:55:31.433Z,30.89
2022-09-15T14:58:22.243Z,30.91
2022-09-15T15:01:36.198Z,30.88
2022-09-15T15:04:45.112Z,30.91
2022-09-15T15:07:39.817Z,30.86
2022-09-15T15:10:36.058Z,30.90
2022-09-15T15:13:27.225Z,30.87
2022-09-15T15:16:24.076Z,30.86
2022-09-15T15:19:40.172Z,30.88
2022-09-15T15:22:32.043Z,30.82
2022-09-15T15:25:33.030Z,30.83
2022-09-15T15:28:41.174Z,30.79
2022-09-15T15:34:37.754Z,30.74
2022-09-15T15:37:35.256Z,30.75
2022-09-15T15:40:25.947Z,30.71
2022-09-15T15:43:29.857Z,30.71
2022-09-15T15:46:55.177Z,30.73
2022-09-15T15:50:11.701Z,30.68
2022-09-15T15:52:57.163Z,30.69
2022-09-15T15:55:50.170Z,30.66
2022-09-15T15:58:43.953Z,30.66
2022-09-15T16:01:35.533Z,30.67
2022-09-15T16:04:28.832Z,30.65
2022-09-15T16:07:21.180Z,30.64
2022-09-15T16:10:13.901Z,30.62
2022-09-15T16:13:05.116Z,30.62
2022-09-15T16:15:56.885Z,30.62
2022-09-15T16:18:47.320Z,30.62
2022-09-15T16:21:41.969Z,30.61
2022-09-15T16:24:37.065Z,30.59
2022-09-15T16:27:30.900Z,30.59
2022-09-15T16:30:22.740Z,30.53
2022-09-15T16:33:17.104Z,30.57
2022-09-15T16:36:13.857Z,30.57
2022-09-15T16:39:08.103Z,30.56
2022-09-15T16:42:01.639Z,30.56
2022-09-15T16:44:51.582Z,30.55
2022-09-15T16:47:44.012Z,30.54
2022-09-15T16:50:34.721Z,30.52
2022-09-15T16:53:25.406Z,30.50
2022-09-15T16:56:21.293Z,30.52
2022-09-15T16:59:12.695Z,30.50
2022-09-15T17:02:03.180Z,30.50
2022-09-15T17:04:56.949Z,30.51
2022-09-15T17:07:47.091Z,30.48
2022-09-15T17:10:37.918Z,30.50
2022-09-15T17:13:30.537Z,30.47
2022-09-15T17:16:22.281Z,30.48
2022-09-15T17:19:13.383Z,30.44
2022-09-15T17:22:05.019Z,30.44
2022-09-15T17:24:55.389Z,30.41
2022-09-15T17:27:46.608Z,30.42
2022-09-15T17:30:37.427Z,30.40
2022-09-15T17:33:28.811Z,30.38
2022-09-15T17:36:19.094Z,30.37
2022-09-15T17:39:10.059Z,30.38
2022-09-15T17:44:50.350Z,30.36
2022-09-15T17:47:40.544Z,30.35
2022-09-15T17:50:34.622Z,30.34
2022-09-15T17:53:28.277Z,30.34
2022-09-15T17:56:18.753Z,30.25
2022-09-15T17:59:10.872Z,30.18
2022-09-15T18:02:05.275Z,30.09
2022-09-15T18:04:55.734Z,30.00
2022-09-15T18:07:46.313Z,29.96
2022-09-15T18:10:38.640Z,29.89
2022-09-15T18:13:29.992Z,29.90
2022-09-15T18:16:20.098Z,29.86
2022-09-15T18:19:11.019Z,29.85
2022-09-15T18:22:05.387Z,29.89
2022-09-15T18:24:56.589Z,29.92
2022-09-15T18:27:48.145Z,29.89
2022-09-15T18:30:43.258Z,29.91
2022-09-15T18:33:33.608Z,29.92
2022-09-15T18:36:24.810Z,29.91
2022-09-15T18:39:14.892Z,29.94
2022-09-15T18:42:06.088Z,29.92
2022-09-15T18:44:56.357Z,29.94
2022-09-15T18:47:57.027Z,29.95
2022-09-15T18:50:49.031Z,29.92
2022-09-15T18:53:43.175Z,29.90
2022-09-15T18:56:33.415Z,29.88
2022-09-15T18:59:24.151Z,29.85
2022-09-15T19:02:15.945Z,29.86
2022-09-15T19:05:06.892Z,29.86
2022-09-15T19:07:58.331Z,29.87
2022-09-15T19:10:51.746Z,29.86
2022-09-15T19:13:42.267Z,29.84
2022-09-15T19:16:53.760Z,29.82
2022-09-15T19:19:44.952Z,29.82
2022-09-15T19:22:35.806Z,29.82
2022-09-15T19:25:26.406Z,29.80
2022-09-15T19:28:16.718Z,29.77
2022-09-15T19:31:11.489Z,29.79
2022-09-15T19:34:02.227Z,29.81
2022-09-15T19:36:52.143Z,29.79
2022-09-15T19:39:45.261Z,29.80
2022-09-15T19:42:35.891Z,29.80
2022-09-15T19:45:26.189Z,29.80
2022-09-15T19:48:16.801Z,29.74
2022-09-15T19:51:14.276Z,29.73
2022-09-15T19:54:06.939Z,29.71
2022-09-15T19:56:57.555Z,29.69
2022-09-15T19:59:47.889Z,29.71
2022-09-15T20:02:38.153Z,29.69
2022-09-15T20:05:28.690Z,29.65
2022-09-15T20:08:20.411Z,29.65
2022-09-15T20:11:11.234Z,29.59
2022-09-15T20:14:02.156Z,29.61
2022-09-15T20:16:55.142Z,29.58
2022-09-15T20:19:48.102Z,29.59
2022-09-15T20:22:39.284Z,29.62
2022-09-15T20:25:29.362Z,29.59
2022-09-15T20:28:20.302Z,29.58
2022-09-15T20:31:12.602Z,29.54
2022-09-15T20:34:05.624Z,29.57
2022-09-15T20:36:56.448Z,29.54
2022-09-15T20:39:54.213Z,29.54
2022-09-15T20:42:44.167Z,29.49
2022-09-15T20:45:37.187Z,29.51
2022-09-15T20:48:31.319Z,29.50
2022-09-15T20:51:27.072Z,29.46
2022-09-15T20:54:17.422Z,29.45
2022-09-15T20:57:07.844Z,29.43
2022-09-15T20:59:58.132Z,29.42
2022-09-15T21:02:53.702Z,29.37
2022-09-15T21:05:45.595Z,29.39
2022-09-15T21:08:36.577Z,29.39
2022-09-15T21:11:31.628Z,29.41
2022-09-15T21:14:22.072Z,29.38
2022-09-15T21:17:12.689Z,29.34
2022-09-15T21:20:02.797Z,29.37
2022-09-15T21:22:59.516Z,29.38
2022-09-15T21:25:49.593Z,29.37
2022-09-15T21:28:40.268Z,29.33
2022-09-15T21:31:35.085Z,29.35
2022-09-15T21:34:25.412Z,29.33
2022-09-15T21:37:16.284Z,29.33
2022-09-15T21:40:06.889Z,29.33
2022-09-15T21:42:57.532Z,29.31
2022-09-15T21:45:48.172Z,29.31
2022-09-15T21:48:38.646Z,29.29
2022-09-15T21:51:30.391Z,29.30
2022-09-15T21:54:24.312Z,29.32
2022-09-15T21:57:15.751Z,29.33
2022-09-15T22:00:07.829Z,29.31
2022-09-15T22:02:57.900Z,29.29
2022-09-15T22:05:49.719Z,29.31
2022-09-15T22:08:41.527Z,29.30
2022-09-15T22:11:32.517Z,29.30
2022-09-15T22:14:23.634Z,29.26
2022-09-15T22:17:14.021Z,29.26
2022-09-15T22:20:05.458Z,29.27
2022-09-15T22:22:57.530Z,29.28
2022-09-15T22:25:47.354Z,29.26
2022-09-15T22:28:38.017Z,29.27
2022-09-15T22:31:30.602Z,29.27
2022-09-15T22:34:21.162Z,29.28
2022-09-15T22:37:11.501Z,29.28
2022-09-15T22:40:02.095Z,29.31
2022-09-15T22:42:52.025Z,29.30
2022-09-15T22:45:42.456Z,29.32
2022-09-15T22:48:32.881Z,29.30
2022-09-15T22:51:22.761Z,29.30
2022-09-15T22:54:13.180Z,29.30
2022-09-15T22:57:03.472Z,29.27
2022-09-15T22:59:54.463Z,29.31
2022-09-15T23:02:46.292Z,29.33
2022-09-15T23:05:37.200Z,29.33
2022-09-15T23:08:28.389Z,29.39
2022-09-15T23:11:19.301Z,29.40
2022-09-15T23:14:16.544Z,29.44
2022-09-15T23:17:06.985Z,29.43
2022-09-15T23:19:57.029Z,29.43
2022-09-15T23:22:47.752Z,29.47
2022-09-15T23:25:40.559Z,29.44
2022-09-15T23:28:32.692Z,29.48
2022-09-15T23:31:23.123Z,29.47
2022-09-15T23:34:13.168Z,29.46
2022-09-15T23:37:04.421Z,29.46
2022-09-15T23:39:54.373Z,29.44
2022-09-15T23:42:44.526Z,29.41
2022-09-15T23:45:34.722Z,29.44
2022-09-15T23:48:24.900Z,29.46
2022-09-15T23:51:15.908Z,29.40
2022-09-15T23:54:06.322Z,29.46
2022-09-15T23:56:56.152Z,29.53
2022-09-15T23:59:46.978Z,29.61
